sensor_id;sensor_type;location;lat;lon;timestamp;pressure;altitude;pressure_sealevel;temperature;humidity
47985;BME280;33753;52.912;-7.342;2023-06-10T00:01:17;99980.38;;;15.07;100.00
47985;BME280;33753;52.912;-7.342;2023-06-10T00:03:45;99985.19;;;15.12;100.00
47985;BME280;33753;52.912;-7.342;2023-06-10T00:06:16;99975.97;;;15.13;100.00
47985;BME280;33753;52.912;-7.342;2023-06-10T00:08:44;99977.22;;;15.17;100.00
47985;BME280;33753;52.912;-7.342;2023-06-10T00:11:14;99975.75;;;15.21;100.00
47985;BME280;33753;52.912;-7.342;2023-06-10T00:13:42;99973.63;;;15.23;100.00
47985;BME280;33753;52.912;-7.342;2023-06-10T00:16:10;99968.00;;;15.25;100.00
47985;BME280;33753;52.912;-7.342;2023-06-10T00:18:38;99966.31;;;15.24;100.00
47985;BME280;33753;52.912;-7.342;2023-06-10T00:21:06;99967.78;;;15.19;100.00
47985;BME280;33753;52.912;-7.342;2023-06-10T00:23:36;99970.09;;;15.16;100.00
47985;BME280;33753;52.912;-7.342;2023-06-10T00:26:05;99975.53;;;15.16;100.00
47985;BME280;33753;52.912;-7.342;2023-06-10T00:28:33;99972.00;;;15.15;100.00
47985;BME280;33753;52.912;-7.342;2023-06-10T00:31:02;99976.84;;;15.13;100.00
47985;BME280;33753;52.912;-7.342;2023-06-10T00:33:31;99970.09;;;15.16;100.00
47985;BME280;33753;52.912;-7.342;2023-06-10T00:36:00;99964.84;;;15.14;100.00
47985;BME280;33753;52.912;-7.342;2023-06-10T00:38:29;99969.72;;;15.06;100.00
47985;BME280;33753;52.912;-7.342;2023-06-10T00:40:58;99966.38;;;15.03;100.00
47985;BME280;33753;52.912;-7.342;2023-06-10T00:43:27;99968.03;;;15.04;100.00
47985;BME280;33753;52.912;-7.342;2023-06-10T00:45:55;99967.19;;;15.04;100.00
47985;BME280;33753;52.912;-7.342;2023-06-10T00:48:23;99967.41;;;15.02;100.00
47985;BME280;33753;52.912;-7.342;2023-06-10T00:50:52;99965.72;;;15.01;100.00
47985;BME280;33753;52.912;-7.342;2023-06-10T00:53:21;99966.59;;;15.02;100.00
47985;BME280;33753;52.912;-7.342;2023-06-10T00:55:50;99963.66;;;15.03;100.00
47985;BME280;33753;52.912;-7.342;2023-06-10T00:58:20;99965.50;;;15.03;100.00
47985;BME280;33753;52.912;-7.342;2023-06-10T01:00:49;99958.41;;;15.02;100.00
47985;BME280;33753;52.912;-7.342;2023-06-10T01:03:18;99958.00;;;14.98;100.00
47985;BME280;33753;52.912;-7.342;2023-06-10T01:05:46;99959.25;;;15.02;100.00
47985;BME280;33753;52.912;-7.342;2023-06-10T01:08:19;99965.13;;;15.06;100.00
47985;BME280;33753;52.912;-7.342;2023-06-10T01:10:53;99962.56;;;15.11;100.00
47985;BME280;33753;52.912;-7.342;2023-06-10T01:13:25;99965.72;;;15.15;100.00
47985;BME280;33753;52.912;-7.342;2023-06-10T01:15:57;99962.94;;;15.28;100.00
47985;BME280;33753;52.912;-7.342;2023-06-10T01:18:29;99966.69;;;15.34;100.00
47985;BME280;33753;52.912;-7.342;2023-06-10T01:20:57;99970.44;;;15.40;100.00
47985;BME280;33753;52.912;-7.342;2023-06-10T01:23:27;99962.47;;;15.45;100.00
47985;BME280;33753;52.912;-7.342;2023-06-10T01:25:57;99962.66;;;15.50;100.00
47985;BME280;33753;52.912;-7.342;2023-06-10T01:28:29;99964.94;;;15.53;100.00
47985;BME280;33753;52.912;-7.342;2023-06-10T01:31:00;99958.44;;;15.54;100.00
47985;BME280;33753;52.912;-7.342;2023-06-10T01:33:36;99954.00;;;15.60;100.00
47985;BME280;33753;52.912;-7.342;2023-06-10T01:36:06;99951.69;;;15.63;100.00
47985;BME280;33753;52.912;-7.342;2023-06-10T01:38:38;99948.97;;;15.63;100.00
47985;BME280;33753;52.912;-7.342;2023-06-10T01:41:08;99953.13;;;15.66;100.00
47985;BME280;33753;52.912;-7.342;2023-06-10T01:43:37;99941.78;;;15.69;100.00
47985;BME280;33753;52.912;-7.342;2023-06-10T01:46:06;99945.38;;;15.69;100.00
47985;BME280;33753;52.912;-7.342;2023-06-10T01:48:35;99948.31;;;15.68;100.00
47985;BME280;33753;52.912;-7.342;2023-06-10T01:51:03;99938.88;;;15.70;100.00
47985;BME280;33753;52.912;-7.342;2023-06-10T01:53:31;99940.97;;;15.68;100.00
47985;BME280;33753;52.912;-7.342;2023-06-10T01:56:01;99933.00;;;15.67;100.00
47985;BME280;33753;52.912;-7.342;2023-06-10T01:58:29;99930.06;;;15.62;100.00
47985;BME280;33753;52.912;-7.342;2023-06-10T02:00:58;99933.25;;;15.59;100.00
47985;BME280;33753;52.912;-7.342;2023-06-10T02:03:26;99933.69;;;15.55;100.00
47985;BME280;33753;52.912;-7.342;2023-06-10T02:05:55;99928.66;;;15.59;100.00
47985;BME280;33753;52.912;-7.342;2023-06-10T02:08:23;99938.06;;;15.63;100.00
47985;BME280;33753;52.912;-7.342;2023-06-10T02:10:51;99930.50;;;15.65;100.00
47985;BME280;33753;52.912;-7.342;2023-06-10T02:13:21;99933.59;;;15.69;100.00
47985;BME280;33753;52.912;-7.342;2023-06-10T02:15:53;99938.88;;;15.70;100.00
47985;BME280;33753;52.912;-7.342;2023-06-10T02:18:21;99928.97;;;15.76;100.00
47985;BME280;33753;52.912;-7.342;2023-06-10T02:20:50;99933.34;;;15.84;100.00
47985;BME280;33753;52.912;-7.342;2023-06-10T02:23:18;99932.09;;;15.86;100.00
47985;BME280;33753;52.912;-7.342;2023-06-10T02:25:46;99935.81;;;15.92;100.00
47985;BME280;33753;52.912;-7.342;2023-06-10T02:28:15;99930.38;;;15.92;100.00
47985;BME280;33753;52.912;-7.342;2023-06-10T02:30:46;99935.38;;;15.95;100.00
47985;BME280;33753;52.912;-7.342;2023-06-10T02:33:14;99928.66;;;15.98;100.00
47985;BME280;33753;52.912;-7.342;2023-06-10T02:35:44;99927.41;;;15.94;100.00
47985;BME280;33753;52.912;-7.342;2023-06-10T02:38:12;99926.19;;;15.89;100.00
47985;BME280;33753;52.912;-7.342;2023-06-10T02:40:42;99931.66;;;15.83;100.00
47985;BME280;33753;52.912;-7.342;2023-06-10T02:43:11;99924.97;;;15.79;100.00
47985;BME280;33753;52.912;-7.342;2023-06-10T02:45:40;99927.75;;;15.72;100.00
47985;BME280;33753;52.912;-7.342;2023-06-10T02:48:11;99931.94;;;15.68;100.00
47985;BME280;33753;52.912;-7.342;2023-06-10T02:50:40;99940.97;;;15.62;100.00
47985;BME280;33753;52.912;-7.342;2023-06-10T02:53:23;99935.53;;;15.62;100.00
47985;BME280;33753;52.912;-7.342;2023-06-10T02:55:59;99934.69;;;15.61;100.00
47985;BME280;33753;52.912;-7.342;2023-06-10T02:58:28;99929.25;;;15.61;100.00
47985;BME280;33753;52.912;-7.342;2023-06-10T03:00:57;99929.69;;;15.58;100.00
47985;BME280;33753;52.912;-7.342;2023-06-10T03:03:31;99929.69;;;15.58;100.00
47985;BME280;33753;52.912;-7.342;2023-06-10T03:06:06;99931.59;;;15.58;100.00
47985;BME280;33753;52.912;-7.342;2023-06-10T03:08:35;99926.78;;;15.53;100.00
47985;BME280;33753;52.912;-7.342;2023-06-10T03:11:08;99933.53;;;15.50;100.00
47985;BME280;33753;52.912;-7.342;2023-06-10T03:13:38;99942.09;;;15.47;100.00
47985;BME280;33753;52.912;-7.342;2023-06-10T03:16:09;99942.53;;;15.44;100.00
47985;BME280;33753;52.912;-7.342;2023-06-10T03:18:41;99940.28;;;15.34;100.00
47985;BME280;33753;52.912;-7.342;2023-06-10T03:21:10;99944.91;;;15.27;100.00
47985;BME280;33753;52.912;-7.342;2023-06-10T03:23:39;99944.31;;;15.25;100.00
47985;BME280;33753;52.912;-7.342;2023-06-10T03:26:07;99948.31;;;15.16;100.00
47985;BME280;33753;52.912;-7.342;2023-06-10T03:28:39;99948.72;;;15.13;100.00
47985;BME280;33753;52.912;-7.342;2023-06-10T03:31:08;99955.03;;;15.07;100.00
47985;BME280;33753;52.912;-7.342;2023-06-10T03:33:36;99950.25;;;15.02;100.00
47985;BME280;33753;52.912;-7.342;2023-06-10T03:36:07;99947.94;;;14.99;100.00
47985;BME280;33753;52.912;-7.342;2023-06-10T03:38:36;99952.53;;;14.98;100.00
47985;BME280;33753;52.912;-7.342;2023-06-10T03:41:07;99952.97;;;14.95;100.00
47985;BME280;33753;52.912;-7.342;2023-06-10T03:43:37;99945.63;;;14.96;100.00
47985;BME280;33753;52.912;-7.342;2023-06-10T03:46:10;99950.88;;;14.97;100.00
47985;BME280;33753;52.912;-7.342;2023-06-10T03:48:38;99950.03;;;15.03;100.00
47985;BME280;33753;52.912;-7.342;2023-06-10T03:51:08;99958.38;;;15.09;100.00
47985;BME280;33753;52.912;-7.342;2023-06-10T03:53:36;99959.63;;;15.13;100.00
47985;BME280;33753;52.912;-7.342;2023-06-10T03:56:05;99956.25;;;15.17;100.00
47985;BME280;33753;52.912;-7.342;2023-06-10T03:58:33;99956.25;;;15.24;100.00
47985;BME280;33753;52.912;-7.342;2023-06-10T04:01:02;99952.88;;;15.29;100.00
47985;BME280;33753;52.912;-7.342;2023-06-10T04:03:34;99953.28;;;15.32;100.00
47985;BME280;33753;52.912;-7.342;2023-06-10T04:06:02;99945.31;;;15.37;100.00
47985;BME280;33753;52.912;-7.342;2023-06-10T04:08:33;99944.88;;;15.41;100.00
47985;BME280;33753;52.912;-7.342;2023-06-10T04:11:03;99945.47;;;15.43;100.00
47985;BME280;33753;52.912;-7.342;2023-06-10T04:13:31;99944.00;;;15.47;100.00
47985;BME280;33753;52.912;-7.342;2023-06-10T04:15:59;99947.78;;;15.46;100.00
47985;BME280;33753;52.912;-7.342;2023-06-10T04:18:29;99943.56;;;15.50;100.00
47985;BME280;33753;52.912;-7.342;2023-06-10T04:21:02;99944.81;;;15.54;100.00
47985;BME280;33753;52.912;-7.342;2023-06-10T04:23:33;99941.63;;;15.57;100.00
47985;BME280;33753;52.912;-7.342;2023-06-10T04:26:02;99943.94;;;15.60;100.00
47985;BME280;33753;52.912;-7.342;2023-06-10T04:28:32;99940.56;;;15.65;100.00
47985;BME280;33753;52.912;-7.342;2023-06-10T04:31:01;99938.22;;;15.68;100.00
47985;BME280;33753;52.912;-7.342;2023-06-10T04:33:31;99941.38;;;15.72;100.00
47985;BME280;33753;52.912;-7.342;2023-06-10T04:36:01;99942.59;;;15.76;100.00
47985;BME280;33753;52.912;-7.342;2023-06-10T04:38:30;99932.13;;;15.80;100.00
47985;BME280;33753;52.912;-7.342;2023-06-10T04:41:00;99926.22;;;15.83;100.00
47985;BME280;33753;52.912;-7.342;2023-06-10T04:43:32;99925.78;;;15.86;100.00
47985;BME280;33753;52.912;-7.342;2023-06-10T04:46:00;99923.69;;;15.88;100.00
47985;BME280;33753;52.912;-7.342;2023-06-10T04:48:29;99917.78;;;15.91;100.00
47985;BME280;33753;52.912;-7.342;2023-06-10T04:50:58;99923.66;;;15.95;100.00
47985;BME280;33753;52.912;-7.342;2023-06-10T04:53:27;99918.56;;;15.98;100.00
47985;BME280;33753;52.912;-7.342;2023-06-10T04:55:56;99923.59;;;16.01;100.00
47985;BME280;33753;52.912;-7.342;2023-06-10T04:58:26;99931.75;;;16.01;100.00
47985;BME280;33753;52.912;-7.342;2023-06-10T05:00:54;99923.31;;;16.10;100.00
47985;BME280;33753;52.912;-7.342;2023-06-10T05:03:22;99923.50;;;16.15;100.00
47985;BME280;33753;52.912;-7.342;2023-06-10T05:05:51;99926.38;;;16.20;100.00
47985;BME280;33753;52.912;-7.342;2023-06-10T05:08:19;99929.28;;;16.25;100.00
47985;BME280;33753;52.912;-7.342;2023-06-10T05:10:48;99927.78;;;16.29;100.00
47985;BME280;33753;52.912;-7.342;2023-06-10T05:13:16;99923.56;;;16.33;100.00
47985;BME280;33753;52.912;-7.342;2023-06-10T05:15:46;99930.22;;;16.37;100.00
47985;BME280;33753;52.912;-7.342;2023-06-10T05:18:15;99920.53;;;16.41;100.00
47985;BME280;33753;52.912;-7.342;2023-06-10T05:20:43;99919.88;;;16.46;100.00
47985;BME280;33753;52.912;-7.342;2023-06-10T05:23:12;99927.41;;;16.51;100.00
47985;BME280;33753;52.912;-7.342;2023-06-10T05:25:40;99924.22;;;16.54;100.00
47985;BME280;33753;52.912;-7.342;2023-06-10T05:28:09;99928.00;;;16.53;100.00
47985;BME280;33753;52.912;-7.342;2023-06-10T05:30:41;99929.50;;;16.49;100.00
47985;BME280;33753;52.912;-7.342;2023-06-10T05:33:10;99922.72;;;16.58;100.00
47985;BME280;33753;52.912;-7.342;2023-06-10T05:35:39;99926.03;;;16.60;100.00
47985;BME280;33753;52.912;-7.342;2023-06-10T05:38:07;99913.00;;;16.62;100.00
47985;BME280;33753;52.912;-7.342;2023-06-10T05:40:35;99922.72;;;16.58;100.00
47985;BME280;33753;52.912;-7.342;2023-06-10T05:43:04;99923.94;;;16.62;100.00
47985;BME280;33753;52.912;-7.342;2023-06-10T05:45:32;99923.47;;;16.65;100.00
47985;BME280;33753;52.912;-7.342;2023-06-10T05:48:00;99932.28;;;16.67;100.00
47985;BME280;33753;52.912;-7.342;2023-06-10T05:50:30;99919.69;;;16.66;100.00
47985;BME280;33753;52.912;-7.342;2023-06-10T05:53:04;99927.31;;;16.57;100.00
47985;BME280;33753;52.912;-7.342;2023-06-10T05:55:33;99916.47;;;16.51;100.00
47985;BME280;33753;52.912;-7.342;2023-06-10T05:58:03;99927.50;;;16.37;100.00
47985;BME280;33753;52.912;-7.342;2023-06-10T06:00:31;99922.56;;;16.28;100.00
47985;BME280;33753;52.912;-7.342;2023-06-10T06:03:03;99931.63;;;16.21;100.00
47985;BME280;33753;52.912;-7.342;2023-06-10T06:05:33;99931.06;;;16.13;100.00
47985;BME280;33753;52.912;-7.342;2023-06-10T06:08:02;99934.91;;;16.05;100.00
47985;BME280;33753;52.912;-7.342;2023-06-10T06:10:30;99932.63;;;16.02;100.00
47985;BME280;33753;52.912;-7.342;2023-06-10T06:12:58;99933.88;;;15.99;100.00
47985;BME280;33753;52.912;-7.342;2023-06-10T06:15:27;99930.53;;;15.97;100.00
47985;BME280;33753;52.912;-7.342;2023-06-10T06:17:55;99941.00;;;16.00;100.00
47985;BME280;33753;52.912;-7.342;2023-06-10T06:20:23;99947.53;;;15.99;100.00
47985;BME280;33753;52.912;-7.342;2023-06-10T06:22:53;99939.94;;;16.01;100.00
47985;BME280;33753;52.912;-7.342;2023-06-10T06:25:22;99946.03;;;16.03;100.00
47985;BME280;33753;52.912;-7.342;2023-06-10T06:27:51;99948.31;;;16.06;100.00
47985;BME280;33753;52.912;-7.342;2023-06-10T06:30:19;99947.88;;;16.10;100.00
47985;BME280;33753;52.912;-7.342;2023-06-10T06:32:47;99947.66;;;16.11;100.00
47985;BME280;33753;52.912;-7.342;2023-06-10T06:35:16;99951.63;;;16.15;100.00
47985;BME280;33753;52.912;-7.342;2023-06-10T06:37:44;99949.91;;;16.21;100.00
47985;BME280;33753;52.912;-7.342;2023-06-10T06:40:25;99949.44;;;16.24;100.00
47985;BME280;33753;52.912;-7.342;2023-06-10T06:42:53;99955.91;;;16.30;100.00
47985;BME280;33753;52.912;-7.342;2023-06-10T06:45:36;99948.97;;;16.34;100.00
47985;BME280;33753;52.912;-7.342;2023-06-10T06:48:05;99950.97;;;16.45;100.00
47985;BME280;33753;52.912;-7.342;2023-06-10T06:50:33;99954.69;;;16.51;100.00
47985;BME280;33753;52.912;-7.342;2023-06-10T06:53:01;99956.06;;;16.60;100.00
47985;BME280;33753;52.912;-7.342;2023-06-10T06:55:31;99951.84;;;16.64;100.00
47985;BME280;33753;52.912;-7.342;2023-06-10T06:58:00;99956.41;;;16.70;100.00
47985;BME280;33753;52.912;-7.342;2023-06-10T07:00:31;99949.81;;;16.78;100.00
47985;BME280;33753;52.912;-7.342;2023-06-10T07:02:59;99953.56;;;16.84;100.00
47985;BME280;33753;52.912;-7.342;2023-06-10T07:05:28;99951.41;;;16.86;100.00
47985;BME280;33753;52.912;-7.342;2023-06-10T07:07:57;99952.66;;;16.90;100.00
47985;BME280;33753;52.912;-7.342;2023-06-10T07:10:26;99956.16;;;16.97;100.00
47985;BME280;33753;52.912;-7.342;2023-06-10T07:12:55;99964.53;;;17.02;100.00
47985;BME280;33753;52.912;-7.342;2023-06-10T07:15:24;99966.34;;;17.08;100.00
47985;BME280;33753;52.912;-7.342;2023-06-10T07:17:52;99967.56;;;17.13;100.00
47985;BME280;33753;52.912;-7.342;2023-06-10T07:20:20;99975.53;;;17.14;100.00
47985;BME280;33753;52.912;-7.342;2023-06-10T07:22:48;99969.16;;;17.20;100.00
47985;BME280;33753;52.912;-7.342;2023-06-10T07:25:17;99967.56;;;17.13;100.00
47985;BME280;33753;52.912;-7.342;2023-06-10T07:27:45;99962.88;;;17.20;100.00
47985;BME280;33753;52.912;-7.342;2023-06-10T07:30:15;99963.69;;;17.20;100.00
47985;BME280;33753;52.912;-7.342;2023-06-10T07:32:44;99965.00;;;17.18;100.00
47985;BME280;33753;52.912;-7.342;2023-06-10T07:35:13;99967.88;;;17.23;100.00
47985;BME280;33753;52.912;-7.342;2023-06-10T07:37:42;99967.88;;;17.23;100.00
47985;BME280;33753;52.912;-7.342;2023-06-10T07:40:11;99969.56;;;17.24;100.00
47985;BME280;33753;52.912;-7.342;2023-06-10T07:42:39;99968.97;;;17.22;100.00
47985;BME280;33753;52.912;-7.342;2023-06-10T07:45:08;99972.88;;;17.26;100.00
47985;BME280;33753;52.912;-7.342;2023-06-10T07:47:38;99978.13;;;17.27;100.00
47985;BME280;33753;52.912;-7.342;2023-06-10T07:50:06;99970.59;;;17.23;100.00
47985;BME280;33753;52.912;-7.342;2023-06-10T07:52:35;99968.34;;;17.20;100.00
47985;BME280;33753;52.912;-7.342;2023-06-10T07:55:04;99967.88;;;17.23;100.00
47985;BME280;33753;52.912;-7.342;2023-06-10T07:57:33;99967.50;;;17.19;100.00
47985;BME280;33753;52.912;-7.342;2023-06-10T08:00:03;99967.41;;;17.26;100.00
47985;BME280;33753;52.912;-7.342;2023-06-10T08:02:39;99961.13;;;17.25;100.00
47985;BME280;33753;52.912;-7.342;2023-06-10T08:05:08;99966.34;;;17.27;100.00
47985;BME280;33753;52.912;-7.342;2023-06-10T08:07:37;99961.94;;;17.26;100.00
47985;BME280;33753;52.912;-7.342;2023-06-10T08:10:06;99964.84;;;17.31;100.00
47985;BME280;33753;52.912;-7.342;2023-06-10T08:12:35;99970.47;;;17.36;100.00
47985;BME280;33753;52.912;-7.342;2023-06-10T08:15:03;99977.44;;;17.32;100.00
47985;BME280;33753;52.912;-7.342;2023-06-10T08:17:32;99979.09;;;17.33;100.00
47985;BME280;33753;52.912;-7.342;2023-06-10T08:20:02;99980.78;;;17.34;100.00
47985;BME280;33753;52.912;-7.342;2023-06-10T08:22:30;99979.34;;;17.32;100.00
47985;BME280;33753;52.912;-7.342;2023-06-10T08:24:58;99990.50;;;17.30;100.00
47985;BME280;33753;52.912;-7.342;2023-06-10T08:27:27;99987.53;;;17.32;100.00
47985;BME280;33753;52.912;-7.342;2023-06-10T08:29:55;99994.69;;;17.33;100.00
47985;BME280;33753;52.912;-7.342;2023-06-10T08:32:26;99996.72;;;17.37;100.00
47985;BME280;33753;52.912;-7.342;2023-06-10T08:34:54;99992.47;;;17.41;100.00
47985;BME280;33753;52.912;-7.342;2023-06-10T08:37:24;99998.88;;;17.35;100.00
47985;BME280;33753;52.912;-7.342;2023-06-10T08:39:53;99989.59;;;17.36;100.00
47985;BME280;33753;52.912;-7.342;2023-06-10T08:42:22;99991.41;;;17.42;100.00
47985;BME280;33753;52.912;-7.342;2023-06-10T08:44:52;99996.19;;;17.47;100.00
47985;BME280;33753;52.912;-7.342;2023-06-10T08:47:22;99992.53;;;17.53;100.00
47985;BME280;33753;52.912;-7.342;2023-06-10T08:49:51;99988.91;;;17.59;100.00
47985;BME280;33753;52.912;-7.342;2023-06-10T08:52:20;99974.38;;;17.59;100.00
47985;BME280;33753;52.912;-7.342;2023-06-10T08:54:52;99977.09;;;17.59;100.00
47985;BME280;33753;52.912;-7.342;2023-06-10T08:57:20;99988.44;;;17.44;100.00
47985;BME280;33753;52.912;-7.342;2023-06-10T08:59:49;99986.72;;;17.31;100.00
47985;BME280;33753;52.912;-7.342;2023-06-10T09:02:17;99992.84;;;17.08;100.00
47985;BME280;33753;52.912;-7.342;2023-06-10T09:04:47;99992.16;;;16.87;100.00
47985;BME280;33753;52.912;-7.342;2023-06-10T09:07:16;100000.72;;;16.72;100.00
47985;BME280;33753;52.912;-7.342;2023-06-10T09:09:44;99996.66;;;16.56;100.00
47985;BME280;33753;52.912;-7.342;2023-06-10T09:12:15;100013.09;;;16.50;100.00
47985;BME280;33753;52.912;-7.342;2023-06-10T09:14:43;100011.69;;;16.40;100.00
47985;BME280;33753;52.912;-7.342;2023-06-10T09:17:11;100020.38;;;16.31;100.00
47985;BME280;33753;52.912;-7.342;2023-06-10T09:19:40;100025.41;;;16.27;100.00
47985;BME280;33753;52.912;-7.342;2023-06-10T09:22:08;100038.25;;;16.20;100.00
47985;BME280;33753;52.912;-7.342;2023-06-10T09:24:38;100047.13;;;16.15;100.00
47985;BME280;33753;52.912;-7.342;2023-06-10T09:27:07;100050.28;;;16.12;100.00
47985;BME280;33753;52.912;-7.342;2023-06-10T09:29:46;100046.91;;;16.10;100.00
47985;BME280;33753;52.912;-7.342;2023-06-10T09:32:16;100048.63;;;16.04;100.00
47985;BME280;33753;52.912;-7.342;2023-06-10T09:34:45;100053.03;;;16.05;100.00
47985;BME280;33753;52.912;-7.342;2023-06-10T09:37:14;100057.88;;;16.03;100.00
47985;BME280;33753;52.912;-7.342;2023-06-10T09:40:00;100065.00;;;16.04;100.00
47985;BME280;33753;52.912;-7.342;2023-06-10T09:42:31;100069.19;;;16.07;100.00
47985;BME280;33753;52.912;-7.342;2023-06-10T09:45:01;100083.03;;;16.12;100.00
47985;BME280;33753;52.912;-7.342;2023-06-10T09:47:30;100085.09;;;16.17;100.00
47985;BME280;33753;52.912;-7.342;2023-06-10T09:49:58;100084.41;;;16.28;100.00
47985;BME280;33753;52.912;-7.342;2023-06-10T09:52:29;100076.34;;;16.40;100.00
47985;BME280;33753;52.912;-7.342;2023-06-10T09:55:01;100083.19;;;16.56;100.00
47985;BME280;33753;52.912;-7.342;2023-06-10T09:57:30;100073.00;;;16.70;100.00
47985;BME280;33753;52.912;-7.342;2023-06-10T09:59:59;100078.75;;;16.87;100.00
47985;BME280;33753;52.912;-7.342;2023-06-10T10:02:44;100059.72;;;17.05;100.00
47985;BME280;33753;52.912;-7.342;2023-06-10T10:05:14;100064.44;;;17.17;100.00
47985;BME280;33753;52.912;-7.342;2023-06-10T10:07:43;100055.75;;;17.26;100.00
47985;BME280;33753;52.912;-7.342;2023-06-10T10:10:13;100056.88;;;17.37;100.00
47985;BME280;33753;52.912;-7.342;2023-06-10T10:12:42;100051.28;;;17.51;100.00
47985;BME280;33753;52.912;-7.342;2023-06-10T10:15:11;100054.53;;;17.59;100.00
47985;BME280;33753;52.912;-7.342;2023-06-10T10:17:40;100042.16;;;17.75;100.00
47985;BME280;33753;52.912;-7.342;2023-06-10T10:20:14;100052.03;;;17.95;100.00
47985;BME280;33753;52.912;-7.342;2023-06-10T10:22:45;100043.41;;;18.10;100.00
47985;BME280;33753;52.912;-7.342;2023-06-10T10:25:16;100033.94;;;18.24;100.00
47985;BME280;33753;52.912;-7.342;2023-06-10T10:27:44;100017.44;;;18.31;100.00
47985;BME280;33753;52.912;-7.342;2023-06-10T10:30:16;100008.41;;;18.42;100.00
47985;BME280;33753;52.912;-7.342;2023-06-10T10:32:45;100003.19;;;18.53;100.00
47985;BME280;33753;52.912;-7.342;2023-06-10T10:35:21;100000.22;;;18.66;100.00
47985;BME280;33753;52.912;-7.342;2023-06-10T10:37:51;99995.84;;;18.89;100.00
47985;BME280;33753;52.912;-7.342;2023-06-10T10:40:20;99993.38;;;19.11;100.00
47985;BME280;33753;52.912;-7.342;2023-06-10T10:42:48;99991.31;;;19.30;100.00
47985;BME280;33753;52.912;-7.342;2023-06-10T10:45:17;99998.56;;;19.48;100.00
47985;BME280;33753;52.912;-7.342;2023-06-10T10:47:48;99983.41;;;19.45;100.00
47985;BME280;33753;52.912;-7.342;2023-06-10T10:50:21;99980.53;;;19.52;100.00
47985;BME280;33753;52.912;-7.342;2023-06-10T10:52:53;99981.00;;;19.61;100.00
47985;BME280;33753;52.912;-7.342;2023-06-10T10:55:23;99978.56;;;19.76;100.00
47985;BME280;33753;52.912;-7.342;2023-06-10T10:57:55;99971.47;;;19.92;100.00
47985;BME280;33753;52.912;-7.342;2023-06-10T11:00:25;99974.16;;;20.04;100.00
47985;BME280;33753;52.912;-7.342;2023-06-10T11:02:57;99963.06;;;20.28;100.00
47985;BME280;33753;52.912;-7.342;2023-06-10T11:05:36;99961.81;;;20.52;100.00
47985;BME280;33753;52.912;-7.342;2023-06-10T11:08:07;99957.00;;;20.77;100.00
47985;BME280;33753;52.912;-7.342;2023-06-10T11:10:36;99947.19;;;21.03;100.00
47985;BME280;33753;52.912;-7.342;2023-06-10T11:13:08;99946.69;;;21.06;100.00
47985;BME280;33753;52.912;-7.342;2023-06-10T11:15:43;99940.78;;;20.97;100.00
47985;BME280;33753;52.912;-7.342;2023-06-10T11:18:13;99928.75;;;20.81;100.00
47985;BME280;33753;52.912;-7.342;2023-06-10T11:20:43;99930.06;;;20.62;100.00
47985;BME280;33753;52.912;-7.342;2023-06-10T11:23:24;99935.56;;;20.62;100.00
47985;BME280;33753;52.912;-7.342;2023-06-10T11:28:35;99934.63;;;20.68;100.00
47985;BME280;33753;52.912;-7.342;2023-06-10T11:31:04;99934.63;;;20.68;100.00
47985;BME280;33753;52.912;-7.342;2023-06-10T11:33:33;99936.25;;;20.69;100.00
47985;BME280;33753;52.912;-7.342;2023-06-10T11:36:03;99929.13;;;20.68;100.00
47985;BME280;33753;52.912;-7.342;2023-06-10T11:38:34;99926.25;;;20.63;100.00
47985;BME280;33753;52.912;-7.342;2023-06-10T11:41:02;99938.06;;;20.80;100.00
47985;BME280;33753;52.912;-7.342;2023-06-10T11:43:31;99939.22;;;20.84;100.00
47985;BME280;33753;52.912;-7.342;2023-06-10T11:45:59;99928.47;;;21.00;100.00
47985;BME280;33753;52.912;-7.342;2023-06-10T11:48:28;99933.56;;;21.13;100.00
47985;BME280;33753;52.912;-7.342;2023-06-10T11:50:58;99929.88;;;21.24;100.00
47985;BME280;33753;52.912;-7.342;2023-06-10T11:53:27;99932.06;;;21.22;100.00
47985;BME280;33753;52.912;-7.342;2023-06-10T11:55:56;99932.63;;;21.24;100.00
47985;BME280;33753;52.912;-7.342;2023-06-10T11:58:24;99934.00;;;21.22;100.00
47985;BME280;33753;52.912;-7.342;2023-06-10T12:00:54;99931.34;;;21.10;100.00
47985;BME280;33753;52.912;-7.342;2023-06-10T12:03:23;99933.66;;;21.18;100.00
47985;BME280;33753;52.912;-7.342;2023-06-10T12:05:55;99943.72;;;21.30;100.00
47985;BME280;33753;52.912;-7.342;2023-06-10T12:08:24;99932.25;;;21.38;100.00
47985;BME280;33753;52.912;-7.342;2023-06-10T12:10:54;99942.69;;;21.36;100.00
47985;BME280;33753;52.912;-7.342;2023-06-10T12:13:25;99931.56;;;21.48;100.00
47985;BME280;33753;52.912;-7.342;2023-06-10T12:15:53;99927.69;;;21.49;100.00
47985;BME280;33753;52.912;-7.342;2023-06-10T12:18:23;99936.00;;;21.76;100.00
47985;BME280;33753;52.912;-7.342;2023-06-10T12:20:52;99929.59;;;21.92;100.00
47985;BME280;33753;52.912;-7.342;2023-06-10T12:23:20;99927.00;;;22.13;100.00
47985;BME280;33753;52.912;-7.342;2023-06-10T12:25:52;99925.19;;;22.24;100.00
47985;BME280;33753;52.912;-7.342;2023-06-10T12:28:22;99913.28;;;22.46;100.00
47985;BME280;33753;52.912;-7.342;2023-06-10T12:30:50;99909.03;;;22.70;100.00
47985;BME280;33753;52.912;-7.342;2023-06-10T12:33:19;99905.25;;;22.82;100.00
47985;BME280;33753;52.912;-7.342;2023-06-10T12:35:48;99911.69;;;23.03;100.00
47985;BME280;33753;52.912;-7.342;2023-06-10T12:38:21;99910.97;;;23.12;100.00
47985;BME280;33753;52.912;-7.342;2023-06-10T12:40:51;99909.06;;;23.18;100.00
47985;BME280;33753;52.912;-7.342;2023-06-10T12:43:19;99908.50;;;23.21;100.00
47985;BME280;33753;52.912;-7.342;2023-06-10T12:45:49;99908.50;;;23.21;100.00
47985;BME280;33753;52.912;-7.342;2023-06-10T12:48:18;99903.00;;;23.21;100.00
47985;BME280;33753;52.912;-7.342;2023-06-10T12:50:50;99908.34;;;23.49;100.00
47985;BME280;33753;52.912;-7.342;2023-06-10T12:53:19;99905.81;;;23.37;100.00